Impacts METAR Board
IDs:

KDCA - Washington/National, VA, US

Updated at: 0900 UTC 19 Jul 2018
Potential Impact None Slight Moderate High
Time 18/21Z 18/22Z 18/23Z 19/00Z 19/01Z 19/02Z 19/03Z 19/04Z 19/05Z 19/06Z 19/07Z 19/08Z 19/09Z
Temp87 88 86 84 81 80 77 76 75 74 73 71 72
Dewpt53 55 55 56 57 57 59 59 59 60 61 63 59
Altim29.94 29.93 29.94 29.95 29.96 29.98 29.99 30.00 30.01 30.02 30.03 30.04 30.05
VIS10 10 10 10 10 10 10 10 10 10 10 10 10
CIG-- -- -- -- -- -- -- -- -- -- -- -- --
CoverSCTSCTFEWFEWFEWFEWFEWCLRFEWSCTSCTSCTSCT
FltCatVFRVFRVFRVFRVFRVFRVFRVFRVFRVFRVFRVFRVFR
WX--------------------------
WDir1033032033031033034034033033035035020
WSpd6 11 11 9 8 7 5 6 6 5 5 5 7
WGst-- -- -- -- -- -- -- -- -- -- -- -- --
Raw hourly METARs
KDCA 182052Z 01006KT 10SM SCT070 31/12 A2994 RMK AO2 SLP137 T03060117 58006
KDCA 182152Z 33011KT 10SM SCT075 31/13 A2993 RMK AO2 SLP135 T03110128
KDCA 182252Z 32011KT 10SM FEW075 30/13 A2994 RMK AO2 SLP138 T03000128
KDCA 182352Z 33009KT 10SM FEW075 29/13 A2995 RMK AO2 SLP142 T02890133 10311 20289 53005
KDCA 190052Z 31008KT 10SM FEW075 27/14 A2996 RMK AO2 SLP146 T02720139
KDCA 190152Z 33007KT 10SM FEW075 27/14 A2998 RMK AO2 SLP152 T02670139
KDCA 190252Z 34005KT 10SM FEW080 25/15 A2999 RMK AO2 SLP154 T02500150 51012
KDCA 190352Z 34006KT 10SM CLR 24/15 A3000 RMK AO2 SLP158 T02440150
KDCA 190452Z 33006KT 10SM FEW070 24/15 A3001 RMK AO2 SLP161 T02390150 403110211
KDCA 190552Z 33005KT 10SM SCT065 23/16 A3002 RMK AO2 SLP167 T02330156 10289 20233 53013
KDCA 190652Z 35005KT 10SM SCT065 23/16 A3003 RMK AO2 SLP168 T02280161
KDCA 190752Z 35005KT 10SM SCT085 22/17 A3004 RMK AO2 SLP172 T02170172
KDCA 190852Z 02007KT 10SM SCT080 22/15 A3005 RMK AO2 SLP174 T02220150 53007



Page loaded:  09:31 UTC  |   02:31 AM Pacific  |   03:31 AM Mountain  |   04:31 AM Central  |   05:31 AM Eastern

 

ADVISORIES

FORECASTS

FORECASTS

OBSERVATIONS

USER TOOLS

ABOUT US